Point, Louisiana
Current Conditions -  °F | °C
As of 2:55 AM on Saturday 25 Oct 2014 (Local Time) from KRSN Reporting Station
Clear Clear  
Wind Chill: 49°   Ceiling: Unl
Heat Index: 49°   Visibility: 10mi
Dew Point: 49°   Wind: 3mph
Humidity: 100%   Direction: 180°S
Pressure: 30.16"   Gusts: NA
Location:  32.6533°N, 92.3683°W
Report Text: KRSN 250755Z AUTO 18003KT 10SM CLR 10/10 A3016 RMK AO2 T00950095
Loading
Personal Weather Stations






























Interactive Weather Map
Tropical Storm Tracking
New forecast layout! Learn more

10-Day Weather Forecast

Advertisements
Track Severe Weather on mobile